Crestview, Florida
Current Conditions -  °F | °C
As of 8:53 PM on Friday 19 Dec 2014 (Local Time) from KCEW Reporting Station
Overcast Overcast  
Wind Chill: 49°   Ceiling: 6000
Heat Index: 49°   Visibility: 10mi
Dew Point: 47°   Wind: 3mph
Humidity: 93%   Direction: NA
Pressure: 30.16"   Gusts: NA
Location:  30.76°N, 86.57°W
Report Text: KCEW 200253Z AUTO VRB03KT 10SM BKN060 OVC075 09/08 A3016 RMK AO2 RAB0157E29 SLP213 P0000 60001 T00940083 53005
Loading
Personal Weather Stations






























Interactive Weather Map New forecast layout! Learn more

10-Day Weather Forecast

Advertisements
Track Severe Weather on mobile